Time;durP1;ratioP1;P1;durP2;ratioP2;P2;SDS_P1;SDS_P2;PMS_P1;PMS_P2;Temp;Humidity;BMP_temperature;BMP_pressure;BME280_temperature;BME280_humidity;BME280_pressure;Samples;Min_cycle;Max_cycle;Signal;HPM_P1;HPM_P2
2023/06/05 00:00:29;;;;;;;25.23;15.77;;;;;;;15.52;82.88;99892.63;5017330;28;20026;-93
2023/06/05 00:02:55;;;;;;;28.60;19.45;;;;;;;15.57;82.79;99883.63;5000744;28;20427;-94
2023/06/05 00:05:20;;;;;;;33.88;21.60;;;;;;;15.50;83.34;99873.13;5000465;28;20040;-92
2023/06/05 00:07:46;;;;;;;29.33;17.70;;;;;;;15.64;83.24;99886.78;5001333;28;20033;-91
2023/06/05 00:10:13;;;;;;;26.95;17.38;;;;;;;15.66;82.73;99876.44;5000410;28;20037;-92
2023/06/05 00:12:39;;;;;;;29.92;15.30;;;;;;;15.70;82.35;99882.09;5001165;28;20041;-92
2023/06/05 00:15:05;;;;;;;22.80;14.40;;;;;;;15.73;82.21;99887.00;4967979;28;20381;-93
2023/06/05 00:17:31;;;;;;;22.50;12.95;;;;;;;15.73;82.59;99881.56;4984127;28;20034;-92
2023/06/05 00:20:00;;;;;;;21.95;14.38;;;;;;;15.61;83.39;99887.38;4961596;28;20464;-92
2023/06/05 00:22:31;;;;;;;22.48;12.52;;;;;;;15.43;83.13;99866.41;4965368;28;20038;-93
2023/06/05 00:24:57;;;;;;;21.13;13.48;;;;;;;15.40;82.94;99875.94;4997701;28;20026;-93
2023/06/05 00:27:23;;;;;;;22.67;13.13;;;;;;;15.38;83.16;99870.00;4948618;28;20488;-91
2023/06/05 00:29:49;;;;;;;23.48;12.13;;;;;;;15.43;83.76;99883.50;4980771;28;20109;-94
2023/06/05 00:32:14;;;;;;;17.73;11.35;;;;;;;15.32;83.83;99873.84;4965229;28;20455;-92
2023/06/05 00:34:40;;;;;;;19.42;12.23;;;;;;;15.29;83.86;99869.00;4964774;28;20120;-93
2023/06/05 00:37:06;;;;;;;19.25;11.75;;;;;;;15.34;83.84;99875.19;4981470;28;20088;-93
2023/06/05 00:39:32;;;;;;;16.98;10.63;;;;;;;15.51;83.74;99898.34;4980994;28;20030;-92
2023/06/05 00:41:57;;;;;;;16.65;9.77;;;;;;;15.31;83.82;99869.50;4964842;28;20238;-93
2023/06/05 00:44:23;;;;;;;13.50;8.70;;;;;;;15.21;84.39;99858.75;4964368;28;20030;-93
2023/06/05 00:46:49;;;;;;;17.45;9.55;;;;;;;15.20;84.74;99865.31;4964552;28;20038;-92
2023/06/05 00:49:14;;;;;;;17.25;10.38;;;;;;;15.16;85.09;99856.91;4980196;28;20026;-93
2023/06/05 00:51:40;;;;;;;19.02;9.63;;;;;;;15.39;84.72;99887.88;4964813;28;20081;-93
2023/06/05 00:54:06;;;;;;;16.40;10.75;;;;;;;15.28;84.06;99872.81;4980495;28;20050;-92
2023/06/05 00:56:35;;;;;;;19.55;10.73;;;;;;;15.51;83.21;99896.44;4980526;28;20467;-93
2023/06/05 00:59:01;;;;;;;18.98;9.43;;;;;;;15.43;83.23;99880.78;4964894;28;20030;-93
2023/06/05 01:01:28;;;;;;;23.35;10.23;;;;;;;15.32;84.07;99882.00;4964376;28;20500;-94
2023/06/05 01:03:59;;;;;;;19.23;10.13;;;;;;;15.53;83.46;99910.53;4980409;28;20037;-94
2023/06/05 01:06:26;;;;;;;18.65;10.60;;;;;;;15.39;83.29;99887.88;4949930;28;20129;-92
2023/06/05 01:08:52;;;;;;;19.70;10.65;;;;;;;15.41;83.45;99901.16;4979622;28;20062;-93
2023/06/05 01:11:59;;;;;;;22.55;11.35;;;;;;;15.55;83.74;99908.31;4947769;28;20096;-93
2023/06/05 01:14:27;;;;;;;14.88;9.88;;;;;;;15.48;84.13;99909.75;4979712;28;20035;-94
2023/06/05 01:16:53;;;;;;;15.95;8.82;;;;;;;15.42;84.01;99892.75;4964460;28;20087;-93
2023/06/05 01:19:19;;;;;;;18.40;9.85;;;;;;;15.37;84.15;99887.34;4949874;28;20030;-93
2023/06/05 01:21:45;;;;;;;15.43;8.38;;;;;;;15.43;83.99;99894.34;4999017;28;20033;-93
2023/06/05 01:24:13;;;;;;;15.93;9.15;;;;;;;15.24;84.82;99882.63;4983087;28;20022;-95
2023/06/05 01:27:04;;;;;;;15.93;8.65;;;;;;;15.49;85.04;99906.75;4999381;28;20029;-92
2023/06/05 01:29:48;;;;;;;15.10;9.20;;;;;;;15.48;84.69;99910.59;4998903;28;20025;-92
2023/06/05 01:32:16;;;;;;;13.45;8.65;;;;;;;15.28;84.85;99892.59;5016379;28;20087;-94
2023/06/05 01:34:43;;;;;;;13.20;8.65;;;;;;;15.34;84.82;99909.66;5015709;28;20022;-94
2023/06/05 01:37:11;;;;;;;15.88;8.98;;;;;;;15.36;85.09;99910.16;4998755;28;20034;-93
2023/06/05 01:39:37;;;;;;;12.95;8.32;;;;;;;15.33;84.81;99910.72;4998642;28;20030;-93
2023/06/05 01:42:03;;;;;;;17.58;10.35;;;;;;;15.27;84.57;99899.13;4998971;28;20503;-93
2023/06/05 01:44:28;;;;;;;17.90;10.48;;;;;;;15.22;84.98;99887.53;4999145;28;20606;-93
2023/06/05 01:46:53;;;;;;;21.73;12.68;;;;;;;15.16;84.97;99900.31;4982120;28;20032;-93
2023/06/05 01:49:20;;;;;;;19.20;13.30;;;;;;;15.31;84.44;99899.34;4982690;28;20022;-92
2023/06/05 01:51:46;;;;;;;18.75;11.63;;;;;;;15.34;84.29;99907.75;4998229;28;20030;-92
2023/06/05 01:54:11;;;;;;;26.20;13.27;;;;;;;15.20;84.53;99889.72;4999183;28;20025;-93
2023/06/05 01:56:36;;;;;;;18.90;11.18;;;;;;;15.34;84.12;99901.50;4998375;28;20033;-92
2023/06/05 01:59:06;;;;;;;18.27;10.07;;;;;;;15.27;83.95;99898.31;4982338;28;20029;-91
2023/06/05 02:01:32;;;;;;;17.00;10.88;;;;;;;15.13;84.54;99907.13;4999666;28;20036;-95
2023/06/05 02:03:58;;;;;;;15.95;9.77;;;;;;;15.21;84.29;99902.16;4998480;28;20033;-94
2023/06/05 02:06:24;;;;;;;15.90;9.57;;;;;;;15.25;83.84;99909.47;4997929;28;20036;-94
2023/06/05 02:08:50;;;;;;;17.60;9.18;;;;;;;15.21;84.05;99910.31;5014350;28;20120;-93
2023/06/05 02:11:16;;;;;;;16.98;9.63;;;;;;;15.14;84.41;99913.34;4997652;28;20029;-94
2023/06/05 02:13:43;;;;;;;18.13;9.05;;;;;;;15.03;84.88;99903.72;4998301;28;20021;-93
2023/06/05 02:16:10;;;;;;;14.90;10.20;;;;;;;15.18;84.09;99908.19;5013945;28;20053;-94
2023/06/05 02:18:37;;;;;;;13.85;8.93;;;;;;;15.11;84.11;99906.59;4998536;28;20025;-94
2023/06/05 02:21:03;;;;;;;16.10;9.32;;;;;;;15.23;83.88;99935.25;4997691;28;20046;-94
2023/06/05 02:23:28;;;;;;;11.63;8.25;;;;;;;15.16;83.08;99892.97;4998398;28;20041;-95
2023/06/05 02:25:54;;;;;;;16.80;9.27;;;;;;;15.11;83.29;99897.66;4998491;28;20030;-94
2023/06/05 02:28:20;;;;;;;19.55;9.90;;;;;;;15.03;83.71;99888.25;4998257;28;20014;-93
2023/06/05 02:30:47;;;;;;;14.80;9.63;;;;;;;15.11;83.82;99903.09;4998472;28;20068;-94
2023/06/05 02:33:14;;;;;;;16.83;10.25;;;;;;;15.14;83.74;99907.94;4997657;28;20569;-94
2023/06/05 02:35:40;;;;;;;15.27;9.32;;;;;;;15.20;83.29;99901.38;4981771;28;20484;-95
2023/06/05 02:38:07;;;;;;;19.65;9.68;;;;;;;15.40;82.69;99918.53;5013906;28;20030;-94
2023/06/05 02:40:33;;;;;;;14.98;10.18;;;;;;;15.21;83.41;99907.59;5014370;28;20036;-94
2023/06/05 02:42:58;;;;;;;18.73;9.90;;;;;;;15.34;83.34;99925.94;4997610;28;20018;-94
2023/06/05 02:45:24;;;;;;;19.23;9.32;;;;;;;15.36;83.20;99921.81;5013808;28;20477;-95
2023/06/05 02:47:49;;;;;;;17.35;9.73;;;;;;;15.28;82.86;99922.44;5013935;28;20057;-94
2023/06/05 02:50:15;;;;;;;16.27;10.80;;;;;;;15.39;82.70;99935.91;4981409;28;20079;-92
2023/06/05 02:52:40;;;;;;;14.68;9.27;;;;;;;15.18;83.48;99919.03;4981070;28;20428;-94
2023/06/05 02:55:07;;;;;;;17.88;9.68;;;;;;;15.10;83.78;99918.53;4981781;28;20469;-94
2023/06/05 02:57:40;;;;;;;12.63;8.48;;;;;;;15.32;83.02;99928.91;4981926;28;20034;-92
2023/06/05 03:00:09;;;;;;;15.10;9.82;;;;;;;15.18;83.78;99908.97;4986547;28;20032;-94
2023/06/05 03:02:37;;;;;;;15.82;9.32;;;;;;;15.35;83.30;99935.69;4982171;28;20026;-92
2023/06/05 03:05:04;;;;;;;15.00;10.05;;;;;;;15.34;82.97;99926.72;4981655;28;20030;-92
2023/06/05 03:07:29;;;;;;;17.08;9.40;;;;;;;15.28;82.79;99921.66;4980423;28;20072;-94
2023/06/05 03:09:55;;;;;;;11.77;9.05;;;;;;;15.32;82.72;99920.78;5015158;28;20018;-93
2023/06/05 03:12:21;;;;;;;14.20;9.18;;;;;;;15.25;82.65;99901.34;5013792;28;20051;-93
2023/06/05 03:14:46;;;;;;;13.15;9.38;;;;;;;15.22;82.41;99909.22;4997295;28;20112;-92
2023/06/05 03:17:12;;;;;;;16.20;10.27;;;;;;;15.27;82.97;99917.31;4981452;28;20030;-92
2023/06/05 03:19:37;;;;;;;15.45;9.25;;;;;;;15.32;82.75;99933.53;4997488;28;20048;-92
2023/06/05 03:22:04;;;;;;;14.77;9.07;;;;;;;15.25;82.62;99904.03;5013453;28;20018;-93
2023/06/05 03:24:29;;;;;;;14.60;9.27;;;;;;;15.41;82.37;99925.59;4981308;28;20045;-93
2023/06/05 03:26:55;;;;;;;18.30;9.88;;;;;;;15.22;82.02;99893.75;4997133;28;20030;-92
2023/06/05 03:29:20;;;;;;;12.95;8.90;;;;;;;15.28;82.11;99908.88;4981923;28;20026;-93
2023/06/05 03:31:45;;;;;;;17.75;10.65;;;;;;;15.25;82.45;99920.31;4997285;28;20080;-92
2023/06/05 03:34:11;;;;;;;15.80;10.25;;;;;;;15.10;83.09;99920.44;4980797;28;20014;-94
2023/06/05 03:36:39;;;;;;;14.50;9.57;;;;;;;15.18;82.49;99910.91;4981310;28;20080;-93
2023/06/05 03:39:05;;;;;;;14.43;9.43;;;;;;;15.23;82.04;99899.97;4998659;28;20057;-92
2023/06/05 03:41:31;;;;;;;21.98;11.55;;;;;;;15.23;82.35;99903.53;4996857;28;20022;-92
2023/06/05 03:43:59;;;;;;;19.35;11.43;;;;;;;15.18;83.08;99897.31;5013063;28;20026;-92
2023/06/05 03:46:24;;;;;;;15.85;10.82;;;;;;;15.26;83.02;99904.84;4980972;28;20484;-92
2023/06/05 03:48:53;;;;;;;18.25;11.05;;;;;;;15.35;82.99;99924.81;4996876;28;20022;-91
2023/06/05 03:51:19;;;;;;;19.63;11.07;;;;;;;15.21;83.33;99907.59;4982651;28;20025;-92
2023/06/05 03:53:45;;;;;;;18.48;11.05;;;;;;;15.08;83.40;99901.75;4996715;28;20026;-92
2023/06/05 03:56:12;;;;;;;30.48;24.45;;;;;;;15.32;83.45;99930.84;4996978;28;20022;-91
2023/06/05 03:58:39;;;;;;;20.25;11.35;;;;;;;15.21;83.09;99908.44;4999973;28;20027;-91
2023/06/05 04:01:05;;;;;;;15.23;10.82;;;;;;;15.33;82.42;99911.53;5001315;28;20029;-91
2023/06/05 04:03:31;;;;;;;17.80;11.20;;;;;;;15.41;82.40;99925.59;5000525;28;20175;-91
2023/06/05 04:05:57;;;;;;;15.07;9.48;;;;;;;15.38;82.07;99923.44;4999870;28;20108;-92
2023/06/05 04:08:22;;;;;;;28.38;25.38;;;;;;;15.43;81.45;99910.63;4985188;28;20018;-90
2023/06/05 04:10:48;;;;;;;17.30;9.40;;;;;;;15.49;81.19;99914.09;4984620;28;20033;-92
2023/06/05 04:13:13;;;;;;;11.88;8.30;;;;;;;15.59;80.32;99919.44;4984640;28;20033;-92
2023/06/05 04:15:39;;;;;;;14.98;7.93;;;;;;;15.72;80.29;99932.31;4987500;28;20048;-92
2023/06/05 04:18:05;;;;;;;16.27;9.25;;;;;;;15.51;81.06;99923.56;5005702;28;20034;-91
2023/06/05 04:20:30;;;;;;;11.90;9.07;;;;;;;15.40;81.74;99910.38;4986479;28;20045;-93
2023/06/05 04:22:56;;;;;;;12.80;8.82;;;;;;;15.34;81.71;99907.75;4974889;28;20076;-92
2023/06/05 04:25:21;;;;;;;14.25;8.82;;;;;;;15.34;81.65;99902.31;4975242;28;20030;-93
2023/06/05 04:27:51;;;;;;;11.77;7.22;;;;;;;15.38;81.63;99916.13;4999941;28;20037;-93
2023/06/05 04:30:16;;;;;;;11.10;7.80;;;;;;;15.66;81.28;99919.88;4983098;28;20088;-93
2023/06/05 04:32:42;;;;;;;11.63;7.88;;;;;;;15.52;81.49;99898.06;5011902;28;20026;-94
2023/06/05 04:35:11;;;;;;;12.35;7.82;;;;;;;15.70;81.28;99922.84;5012359;28;20030;-94
2023/06/05 04:37:37;;;;;;;12.82;8.07;;;;;;;15.76;80.84;99921.72;5016268;28;20408;-94
2023/06/05 04:40:06;;;;;;;10.50;7.10;;;;;;;15.92;79.61;99912.28;4999435;28;20022;-91
2023/06/05 04:42:34;;;;;;;9.85;6.57;;;;;;;15.98;78.42;99907.59;5004194;28;20092;-93
2023/06/05 04:45:02;;;;;;;9.63;7.00;;;;;;;16.04;78.31;99902.88;5019569;28;20076;-93
2023/06/05 04:47:27;;;;;;;13.90;7.25;;;;;;;16.15;77.62;99904.38;4980970;28;20095;-92
2023/06/05 04:49:59;;;;;;;11.32;7.28;;;;;;;16.22;77.06;99899.38;5004015;28;20125;-96
2023/06/05 04:52:26;;;;;;;12.45;7.43;;;;;;;16.14;77.04;99898.16;5032048;28;20085;-96
2023/06/05 04:54:54;;;;;;;10.90;7.05;;;;;;;16.11;77.88;99896.00;5014794;28;20046;-96
2023/06/05 04:57:25;;;;;;;7.53;5.78;;;;;;;16.23;76.85;99892.88;5011389;28;20038;-95
2023/06/05 04:59:52;;;;;;;9.70;6.30;;;;;;;16.57;76.09;99905.41;4975040;28;20036;-95
2023/06/05 05:03:04;;;;;;;9.85;6.75;;;;;;;16.50;75.96;99891.41;4972761;28;20065;-94
2023/06/05 05:05:29;;;;;;;9.02;5.97;;;;;;;16.57;75.74;99894.53;5010745;28;20026;-96
2023/06/05 05:07:56;;;;;;;9.73;6.18;;;;;;;16.81;75.94;99916.22;4992930;28;20101;-94
2023/06/05 05:10:22;;;;;;;8.35;6.00;;;;;;;16.98;74.27;99899.34;5010121;28;20029;-95
2023/06/05 05:12:48;;;;;;;11.23;6.47;;;;;;;17.06;74.65;99906.03;5005838;28;20029;-94
2023/06/05 05:15:13;;;;;;;8.32;5.85;;;;;;;17.05;74.50;99891.59;5008084;28;20026;-95
2023/06/05 05:17:39;;;;;;;10.35;5.75;;;;;;;17.26;73.01;99891.25;4985988;28;20033;-94
2023/06/05 05:20:07;;;;;;;10.50;7.97;;;;;;;17.35;73.13;99905.78;5017469;28;20125;-96
2023/06/05 05:22:33;;;;;;;9.60;5.47;;;;;;;17.52;72.84;99907.91;5016465;28;20076;-91
2023/06/05 05:24:59;;;;;;;9.02;5.65;;;;;;;17.63;72.38;99892.97;5003181;28;20034;-94
2023/06/05 05:27:24;;;;;;;9.10;5.95;;;;;;;17.54;72.24;99892.88;5021833;28;20115;-94
2023/06/05 05:29:50;;;;;;;8.82;6.13;;;;;;;17.71;72.19;99896.94;5003921;28;20079;-93
2023/06/05 05:32:19;;;;;;;8.85;6.00;;;;;;;17.92;71.14;99900.06;4986430;28;20488;-96
2023/06/05 05:34:47;;;;;;;10.30;6.20;;;;;;;18.03;70.44;99896.00;4973748;28;20013;-95
2023/06/05 05:37:13;;;;;;;56.35;35.47;;;;;;;18.23;69.79;99902.13;4985490;28;20053;-91
2023/06/05 05:39:39;;;;;;;8.88;6.07;;;;;;;18.44;69.53;99914.19;5001870;28;20034;-94
2023/06/05 05:42:05;;;;;;;9.32;5.38;;;;;;;18.51;69.98;99920.03;5019610;28;20069;-94
2023/06/05 05:44:30;;;;;;;9.02;6.25;;;;;;;18.38;69.38;99890.88;5003938;28;20094;-90
2023/06/05 05:46:56;;;;;;;252.05;161.27;;;;;;;18.63;68.41;99918.69;4989082;28;20411;-94
2023/06/05 05:49:22;;;;;;;16.85;5.65;;;;;;;18.41;68.73;99884.00;4988380;28;20041;-95
2023/06/05 05:51:56;;;;;;;7.75;5.10;;;;;;;18.30;69.41;99895.16;5007644;28;20029;-95
2023/06/05 05:54:26;;;;;;;7.88;4.63;;;;;;;18.14;69.30;99902.06;5025016;28;20022;-95
2023/06/05 05:56:52;;;;;;;6.35;4.22;;;;;;;18.14;69.60;99891.97;4974533;28;20026;-94
2023/06/05 05:59:18;;;;;;;7.95;4.93;;;;;;;18.29;69.67;99895.47;5005460;28;20083;-95
2023/06/05 06:01:48;;;;;;;6.95;4.50;;;;;;;18.49;69.29;99891.44;5004793;28;20049;-95
2023/06/05 06:04:15;;;;;;;8.40;5.40;;;;;;;18.66;68.65;99883.41;5005461;28;20026;-95
2023/06/05 06:06:47;;;;;;;7.50;4.60;;;;;;;18.74;68.27;99885.41;4983139;28;20030;-96
2023/06/05 06:09:20;;;;;;;5.72;4.65;;;;;;;18.71;68.13;99882.47;4972266;28;20034;-94
2023/06/05 06:11:48;;;;;;;8.05;6.53;;;;;;;18.70;67.94;99881.69;4971412;28;20507;-94
2023/06/05 06:14:14;;;;;;;10.30;4.90;;;;;;;18.63;67.81;99867.66;4989118;28;20037;-96
2023/06/05 06:16:43;;;;;;;6.10;4.82;;;;;;;18.77;67.97;99881.25;5004793;28;20053;-96
2023/06/05 06:19:13;;;;;;;7.38;5.43;;;;;;;18.77;68.17;99882.03;4985476;28;20081;-95
2023/06/05 06:21:40;;;;;;;6.38;4.80;;;;;;;18.89;67.34;99876.06;5003830;28;20042;-92
2023/06/05 06:24:09;;;;;;;6.00;4.97;;;;;;;19.01;68.00;99902.78;5019198;28;20088;-96
2023/06/05 06:26:38;;;;;;;8.07;4.88;;;;;;;18.97;68.32;99879.97;4989852;28;20488;-92
2023/06/05 06:29:03;;;;;;;21.92;13.98;;;;;;;19.05;67.67;99902.94;4959370;28;20022;-91
2023/06/05 06:31:31;;;;;;;23.60;14.35;;;;;;;18.89;67.72;99867.88;5005467;28;20541;-93
2023/06/05 06:33:57;;;;;;;12.27;8.00;;;;;;;18.93;68.06;99874.31;4966298;28;20025;-96
2023/06/05 06:36:23;;;;;;;5.97;4.32;;;;;;;18.94;66.95;99877.84;4982238;28;20018;-94
2023/06/05 06:38:51;;;;;;;7.95;4.07;;;;;;;19.02;67.00;99881.75;4985428;28;20095;-94
2023/06/05 06:41:17;;;;;;;7.07;4.00;;;;;;;19.13;66.34;99866.69;4968402;28;20034;-94
2023/06/05 06:43:48;;;;;;;7.82;4.38;;;;;;;19.26;66.42;99865.00;4967881;28;20534;-94
2023/06/05 06:46:13;;;;;;;6.05;3.70;;;;;;;19.36;65.89;99859.25;4983841;28;20029;-93
2023/06/05 06:48:39;;;;;;;5.10;3.45;;;;;;;19.42;64.62;99859.94;4999403;28;20037;-94
2023/06/05 06:51:04;;;;;;;7.57;4.00;;;;;;;19.51;64.83;99852.59;4963210;28;20135;-91
2023/06/05 06:53:30;;;;;;;5.22;3.70;;;;;;;19.54;65.07;99860.94;4980084;28;20026;-90
2023/06/05 06:56:00;;;;;;;5.53;3.60;;;;;;;19.85;64.76;99875.69;4979980;28;20156;-94
2023/06/05 06:58:31;;;;;;;6.20;3.47;;;;;;;19.93;64.46;99877.63;4980088;28;20045;-91
2023/06/05 07:01:03;;;;;;;7.60;3.60;;;;;;;20.01;63.71;99881.53;4982430;28;20026;-93
2023/06/05 07:03:29;;;;;;;5.88;3.67;;;;;;;19.97;63.24;99864.94;4999007;28;20111;-91
2023/06/05 07:05:54;;;;;;;4.63;3.20;;;;;;;20.07;62.84;99864.63;4957238;28;20018;-93
2023/06/05 07:08:20;;;;;;;5.80;3.42;;;;;;;20.04;62.10;99845.31;4978662;28;20072;-93
2023/06/05 07:11:02;;;;;;;6.80;4.28;;;;;;;20.21;62.91;99853.53;4978618;28;20134;-94
2023/06/05 07:13:31;;;;;;;7.93;3.67;;;;;;;20.41;60.84;99856.78;5012482;28;20191;-92
2023/06/05 07:15:59;;;;;;;6.60;3.00;;;;;;;20.51;59.97;99856.44;4972348;28;20027;-92
2023/06/05 07:18:27;;;;;;;6.53;3.58;;;;;;;20.58;59.84;99865.00;4997365;28;20026;-93
2023/06/05 07:20:54;;;;;;;4.35;3.10;;;;;;;20.66;59.07;99863.38;4965092;28;20042;-91
2023/06/05 07:23:20;;;;;;;5.45;3.10;;;;;;;20.69;58.32;99852.59;4979006;28;20026;-90
2023/06/05 07:25:45;;;;;;;6.63;5.75;;;;;;;20.74;56.00;99881.72;4969430;28;20041;-92
2023/06/05 07:28:15;;;;;;;5.18;2.60;;;;;;;20.84;55.69;99869.63;4989048;28;20027;-90
2023/06/05 07:30:44;;;;;;;6.18;2.35;;;;;;;20.87;55.26;99853.34;4973795;28;20046;-92
2023/06/05 07:33:10;;;;;;;4.60;2.30;;;;;;;20.97;52.31;99860.41;4993226;28;20030;-94
2023/06/05 07:35:36;;;;;;;3.78;2.10;;;;;;;21.10;51.42;99847.66;4977687;28;20022;-90
2023/06/05 07:38:02;;;;;;;7.38;2.88;;;;;;;21.28;52.37;99853.88;4970282;28;20117;-92
2023/06/05 07:40:30;;;;;;;5.10;2.75;;;;;;;21.48;51.36;99857.84;4964908;28;20030;-96
2023/06/05 07:42:56;;;;;;;5.78;2.65;;;;;;;21.70;49.66;99867.72;4971682;28;20034;-91
2023/06/05 07:45:21;;;;;;;4.38;2.60;;;;;;;21.75;48.87;99840.16;4990723;28;20049;-91
2023/06/05 07:47:47;;;;;;;6.03;2.40;;;;;;;21.91;51.46;99846.63;5002797;28;20038;-91
2023/06/05 07:50:15;;;;;;;4.25;2.40;;;;;;;22.19;50.67;99868.06;4987199;28;20058;-90
2023/06/05 07:52:40;;;;;;;7.07;2.65;;;;;;;22.18;53.43;99845.31;5000094;28;20109;-90
2023/06/05 07:55:07;;;;;;;5.38;3.20;;;;;;;22.32;53.99;99856.03;4993465;28;20022;-91
2023/06/05 07:57:33;;;;;;;7.45;3.60;;;;;;;22.35;55.83;99858.13;4998765;28;20029;-92
2023/06/05 08:00:04;;;;;;;5.35;3.00;;;;;;;22.32;55.59;99853.28;4973922;28;20029;-91
2023/06/05 08:02:35;;;;;;;3.92;2.42;;;;;;;22.31;51.49;99835.25;4986407;28;20022;-92
2023/06/05 08:05:03;;;;;;;2.53;2.10;;;;;;;22.43;48.83;99839.97;5004032;28;20026;-95
2023/06/05 08:07:36;;;;;;;3.20;2.42;;;;;;;22.48;49.97;99828.78;4973503;28;20030;-94
2023/06/05 08:10:05;;;;;;;5.95;2.88;;;;;;;22.49;49.77;99835.06;4989038;28;20028;-95
2023/06/05 08:12:31;;;;;;;4.90;3.40;;;;;;;22.32;50.04;99819.56;4972628;28;20030;-94
2023/06/05 08:14:57;;;;;;;4.70;2.78;;;;;;;22.55;50.25;99833.72;4970967;28;20018;-92
2023/06/05 08:17:36;;;;;;;4.00;2.83;;;;;;;22.56;50.86;99849.88;5020647;28;20026;-95
2023/06/05 08:20:05;;;;;;;5.72;2.63;;;;;;;22.71;50.20;99851.16;4990597;28;20041;-93
2023/06/05 08:23:00;;;;;;;5.10;2.53;;;;;;;22.65;49.21;99819.59;5017578;28;20514;-95
2023/06/05 08:25:36;;;;;;;;;;;;;;;;;;;;;
2023/06/05 08:28:06;;;;;;;4.03;2.60;;;;;;;22.62;47.72;99817.53;4994418;28;20105;-91
2023/06/05 08:34:19;;;;;;;6.70;4.22;;;;;;;23.04;47.12;99831.16;5011016;28;20033;-91
2023/06/05 08:36:48;;;;;;;10.95;6.22;;;;;;;23.04;47.15;99814.66;4986687;28;20065;-93
2023/06/05 08:39:24;;;;;;;4.82;2.58;;;;;;;23.04;47.22;99830.34;4983989;28;20034;-94
2023/06/05 08:41:51;;;;;;;6.65;3.13;;;;;;;23.01;47.99;99812.59;5000912;28;20121;-93
2023/06/05 08:44:18;;;;;;;7.20;2.72;;;;;;;23.19;46.34;99833.22;4974886;28;20113;-92
2023/06/05 08:46:44;;;;;;;4.07;3.03;;;;;;;23.33;47.46;99830.16;4976504;28;20050;-92
2023/06/05 08:49:12;;;;;;;6.47;3.08;;;;;;;23.39;46.00;99825.22;4980608;28;20030;-93
2023/06/05 08:51:47;;;;;;;3.03;2.22;;;;;;;23.48;44.69;99831.41;4982297;28;20033;-92
2023/06/05 08:54:55;;;;;;;5.10;2.22;;;;;;;23.50;44.79;99829.09;4985660;28;20028;-93
2023/06/05 08:57:36;;;;;;;6.45;2.00;;;;;;;23.12;44.74;99822.00;5015890;28;20049;-90
2023/06/05 09:00:09;;;;;;;12.30;3.70;;;;;;;23.08;45.59;99823.03;4983738;28;20095;-91
2023/06/05 09:03:00;;;;;;;9.07;3.08;;;;;;;23.16;47.02;99820.19;5001005;28;20480;-91
2023/06/05 09:05:29;;;;;;;4.93;3.40;;;;;;;23.22;47.51;99822.69;4975153;28;20509;-91
2023/06/05 09:08:04;;;;;;;7.60;2.60;;;;;;;23.13;46.55;99829.09;4942178;28;20106;-92
2023/06/05 09:10:30;;;;;;;5.50;2.60;;;;;;;23.06;47.01;99817.88;4943179;28;20038;-93
2023/06/05 09:13:12;;;;;;;3.80;2.20;;;;;;;23.36;46.96;99814.91;4963199;28;20576;-93
2023/06/05 09:15:38;;;;;;;8.60;2.45;;;;;;;23.41;46.47;99820.19;4930542;28;20045;-93
2023/06/05 09:18:25;;;;;;;3.85;2.45;;;;;;;23.25;46.09;99808.28;4960241;28;20035;-94
2023/06/05 09:20:50;;;;;;;5.78;3.75;;;;;;;23.26;46.57;99834.59;4945740;28;20064;-93
2023/06/05 09:23:26;;;;;;;5.00;2.55;;;;;;;23.30;46.74;99810.78;4930191;28;20034;-93
2023/06/05 09:26:03;;;;;;;2.85;2.00;;;;;;;23.47;46.41;99818.81;4928651;28;20385;-93
2023/06/05 09:28:31;;;;;;;8.13;2.50;;;;;;;23.48;45.90;99812.16;4931040;28;20072;-94
2023/06/05 09:31:00;;;;;;;4.05;2.00;;;;;;;23.67;46.28;99830.81;4934300;28;20038;-95
2023/06/05 09:33:35;;;;;;;6.53;2.42;;;;;;;23.69;46.05;99794.72;4985310;28;20062;-96
2023/06/05 09:36:13;;;;;;;3.58;2.35;;;;;;;23.73;45.89;99790.13;4951450;28;20480;-96
2023/06/05 09:39:15;;;;;;;5.80;2.65;;;;;;;23.98;45.69;99808.22;5029302;28;20042;-96
2023/06/05 09:41:58;;;;;;;6.05;2.90;;;;;;;23.92;43.65;99786.81;4991169;28;20030;-96
2023/06/05 09:44:26;;;;;;;4.25;2.40;;;;;;;24.03;43.15;99806.38;4984827;28;20042;-94
2023/06/05 09:46:58;;;;;;;3.78;2.30;;;;;;;24.15;42.76;99809.09;4968278;28;20061;-95
2023/06/05 09:49:29;;;;;;;4.78;2.40;;;;;;;24.16;42.90;99783.19;4999067;28;20034;-95
2023/06/05 09:51:59;;;;;;;4.93;2.00;;;;;;;23.85;42.68;99775.59;5006739;28;20429;-95
2023/06/05 09:54:29;;;;;;;4.40;2.40;;;;;;;23.95;42.77;99780.63;5001076;28;20030;-92
2023/06/05 09:57:00;;;;;;;2.80;1.60;;;;;;;23.88;43.66;99758.38;5003878;28;20045;-95
2023/06/05 09:59:35;;;;;;;5.40;3.05;;;;;;;24.17;44.24;99780.06;4988642;28;20041;-94
2023/06/05 10:02:05;;;;;;;5.00;2.58;;;;;;;24.35;42.89;99791.56;4995580;28;20030;-92
2023/06/05 10:05:01;;;;;;;7.45;2.92;;;;;;;24.06;43.12;99767.97;4979777;28;20098;-91
2023/06/05 10:08:02;;;;;;;3.30;2.33;;;;;;;24.32;43.19;99767.53;4993202;28;20413;-96
2023/06/05 10:10:31;;;;;;;5.10;2.40;;;;;;;24.62;43.27;99789.19;4994713;28;20076;-94
2023/06/05 10:12:59;;;;;;;2.67;2.00;;;;;;;24.55;42.64;99783.47;4995202;28;20057;-93
2023/06/05 10:15:25;;;;;;;4.38;2.20;;;;;;;24.63;41.70;99776.22;4986566;28;20131;-93
2023/06/05 10:17:51;;;;;;;3.88;2.13;;;;;;;24.58;41.24;99756.03;4989409;28;20056;-95
2023/06/05 10:20:16;;;;;;;5.05;2.00;;;;;;;24.79;42.35;99771.53;4979111;28;20042;-92
2023/06/05 10:22:42;;;;;;;10.77;8.13;;;;;;;24.97;41.65;99764.50;4998303;28;20037;-93
2023/06/05 10:25:09;;;;;;;3.33;2.35;;;;;;;25.08;41.38;99763.97;4994461;28;20097;-94
2023/06/05 10:27:49;;;;;;;4.68;2.20;;;;;;;25.34;40.36;99780.78;5020213;28;20033;-96
2023/06/05 10:30:55;;;;;;;3.45;2.05;;;;;;;25.29;39.04;99771.97;5009437;28;20017;-96
2023/06/05 10:37:39;;;;;;;7.45;3.33;;;;;;;25.15;39.32;99766.88;5026452;28;20052;-95
2023/06/05 10:40:12;;;;;;;5.07;2.20;;;;;;;25.01;39.91;99740.59;5004813;28;20033;-95
2023/06/05 10:43:01;;;;;;;23.40;15.15;;;;;;;25.19;41.07;99746.53;5006168;28;20130;-93
2023/06/05 10:45:42;;;;;;;3.40;2.30;;;;;;;25.26;38.88;99759.72;5001207;28;20039;-95
2023/06/05 10:48:44;;;;;;;3.85;2.10;;;;;;;25.27;38.89;99749.47;4977307;28;20125;-94
2023/06/05 10:52:30;;;;;;;4.65;2.00;;;;;;;25.43;38.83;99755.78;4982353;28;20158;-92
2023/06/05 10:54:40;;;;;;;7.40;2.13;;;;;;;25.40;38.47;99753.72;5004438;28;20033;-92
2023/06/05 10:57:11;;;;;;;6.72;1.95;;;;;;;25.44;37.26;99737.25;4997287;28;20030;-92
2023/06/05 10:59:38;;;;;;;3.15;1.83;;;;;;;25.38;36.84;99733.97;4983757;28;20101;-94
2023/06/05 11:02:16;;;;;;;4.45;1.80;;;;;;;25.47;36.63;99748.38;4979195;28;20037;-92
2023/06/05 11:04:46;;;;;;;5.32;2.25;;;;;;;25.54;36.47;99748.53;5016311;28;20053;-92
2023/06/05 11:07:28;;;;;;;4.45;2.38;;;;;;;25.45;35.58;99730.59;5000101;28;20037;-92
2023/06/05 11:10:03;;;;;;;3.13;1.90;;;;;;;25.51;34.86;99752.00;4967421;28;20034;-92
2023/06/05 11:13:14;;;;;;;;;;;;;;;;;;;;;
2023/06/05 11:16:12;;;;;;;7.78;3.20;;;;;;;25.71;34.57;99741.00;5020420;28;20094;-93
2023/06/05 11:18:40;;;;;;;5.80;2.53;;;;;;;25.48;33.24;99708.59;4987077;28;20049;-92
2023/06/05 11:21:13;;;;;;;6.22;3.15;;;;;;;25.41;33.14;99713.97;5010824;28;20449;-93
2023/06/05 11:23:42;;;;;;;2.90;1.90;;;;;;;25.61;33.08;99729.38;4986377;28;20045;-92
2023/06/05 11:26:55;;;;;;;3.80;1.40;;;;;;;25.80;32.69;99739.63;4970492;28;20018;-94
2023/06/05 11:29:51;;;;;;;5.55;1.80;;;;;;;25.88;32.27;99732.31;5004856;28;20054;-94
2023/06/05 11:32:19;;;;;;;3.65;1.90;;;;;;;25.78;32.26;99722.66;4985364;28;20025;-94
2023/06/05 11:34:50;;;;;;;4.22;2.25;;;;;;;25.82;32.21;99722.72;4977381;28;20097;-93
2023/06/05 11:37:28;;;;;;;;;;;;;;;;;;;;;
2023/06/05 11:40:45;;;;;;;2.90;1.85;;;;;;;25.95;32.93;99713.16;5003034;28;20095;-95
2023/06/05 11:43:15;;;;;;;7.28;2.20;;;;;;;26.07;32.34;99711.44;5003069;28;20072;-95
2023/06/05 11:46:02;;;;;;;7.78;1.60;;;;;;;26.15;32.07;99732.47;5004832;28;20029;-93
2023/06/05 11:48:33;;;;;;;3.55;2.05;;;;;;;26.19;32.62;99722.31;5002208;28;20030;-95
2023/06/05 11:51:15;;;;;;;7.70;2.90;;;;;;;26.27;32.57;99715.72;5004810;28;20034;-96
2023/06/05 11:54:01;;;;;;;2.53;1.60;;;;;;;26.42;30.82;99720.38;4989500;28;20061;-94